sensor_id;sensor_type;location;lat;lon;timestamp;P1;durP1;ratioP1;P2;durP2;ratioP2
24559;SDS011;12727;49.934;8.656;2023-02-15T00:01:45;60.80;;;24.35;;
24559;SDS011;12727;49.934;8.656;2023-02-15T00:04:16;62.30;;;24.63;;
24559;SDS011;12727;49.934;8.656;2023-02-15T00:06:45;67.93;;;25.95;;
24559;SDS011;12727;49.934;8.656;2023-02-15T00:09:11;71.68;;;26.75;;
24559;SDS011;12727;49.934;8.656;2023-02-15T00:11:37;64.95;;;24.80;;
24559;SDS011;12727;49.934;8.656;2023-02-15T00:14:11;68.70;;;26.13;;
24559;SDS011;12727;49.934;8.656;2023-02-15T00:16:44;67.00;;;25.45;;
24559;SDS011;12727;49.934;8.656;2023-02-15T00:19:10;69.55;;;27.27;;
24559;SDS011;12727;49.934;8.656;2023-02-15T00:21:37;76.65;;;29.83;;
24559;SDS011;12727;49.934;8.656;2023-02-15T00:24:04;73.75;;;26.75;;
24559;SDS011;12727;49.934;8.656;2023-02-15T00:26:32;71.63;;;24.98;;
24559;SDS011;12727;49.934;8.656;2023-02-15T00:28:58;71.32;;;26.38;;
24559;SDS011;12727;49.934;8.656;2023-02-15T00:31:24;70.63;;;25.60;;
24559;SDS011;12727;49.934;8.656;2023-02-15T00:33:50;69.45;;;26.83;;
24559;SDS011;12727;49.934;8.656;2023-02-15T00:36:16;71.75;;;26.15;;
24559;SDS011;12727;49.934;8.656;2023-02-15T00:38:42;73.95;;;26.10;;
24559;SDS011;12727;49.934;8.656;2023-02-15T00:41:08;79.28;;;27.33;;
24559;SDS011;12727;49.934;8.656;2023-02-15T00:43:34;78.13;;;27.95;;
24559;SDS011;12727;49.934;8.656;2023-02-15T00:46:01;73.75;;;26.67;;
24559;SDS011;12727;49.934;8.656;2023-02-15T00:48:28;78.03;;;28.35;;
24559;SDS011;12727;49.934;8.656;2023-02-15T00:50:55;71.55;;;25.27;;
24559;SDS011;12727;49.934;8.656;2023-02-15T00:53:23;73.80;;;27.88;;
24559;SDS011;12727;49.934;8.656;2023-02-15T00:55:50;75.60;;;26.30;;
24559;SDS011;12727;49.934;8.656;2023-02-15T00:58:17;73.70;;;27.20;;
24559;SDS011;12727;49.934;8.656;2023-02-15T01:00:43;70.75;;;25.73;;
24559;SDS011;12727;49.934;8.656;2023-02-15T01:03:10;61.13;;;22.65;;
24559;SDS011;12727;49.934;8.656;2023-02-15T01:05:41;69.82;;;26.25;;
24559;SDS011;12727;49.934;8.656;2023-02-15T01:08:08;74.95;;;27.83;;
24559;SDS011;12727;49.934;8.656;2023-02-15T01:10:35;78.47;;;29.42;;
24559;SDS011;12727;49.934;8.656;2023-02-15T01:13:01;76.78;;;27.73;;
24559;SDS011;12727;49.934;8.656;2023-02-15T01:15:27;80.00;;;27.58;;
24559;SDS011;12727;49.934;8.656;2023-02-15T01:17:53;83.20;;;29.45;;
24559;SDS011;12727;49.934;8.656;2023-02-15T01:20:19;76.35;;;27.90;;
24559;SDS011;12727;49.934;8.656;2023-02-15T01:22:45;77.15;;;28.48;;
24559;SDS011;12727;49.934;8.656;2023-02-15T01:25:11;77.47;;;26.85;;
24559;SDS011;12727;49.934;8.656;2023-02-15T01:27:37;89.15;;;31.88;;
24559;SDS011;12727;49.934;8.656;2023-02-15T01:30:03;79.10;;;28.15;;
24559;SDS011;12727;49.934;8.656;2023-02-15T01:32:29;83.55;;;30.88;;
24559;SDS011;12727;49.934;8.656;2023-02-15T01:34:55;79.03;;;29.65;;
24559;SDS011;12727;49.934;8.656;2023-02-15T01:37:21;82.90;;;29.23;;
24559;SDS011;12727;49.934;8.656;2023-02-15T01:39:47;83.50;;;31.13;;
24559;SDS011;12727;49.934;8.656;2023-02-15T01:42:14;83.15;;;29.33;;
24559;SDS011;12727;49.934;8.656;2023-02-15T01:48:01;80.05;;;27.88;;
24559;SDS011;12727;49.934;8.656;2023-02-15T01:52:44;83.50;;;28.98;;
24559;SDS011;12727;49.934;8.656;2023-02-15T01:55:16;73.53;;;27.17;;
24559;SDS011;12727;49.934;8.656;2023-02-15T01:57:42;80.25;;;29.40;;
24559;SDS011;12727;49.934;8.656;2023-02-15T02:00:10;84.07;;;30.65;;
24559;SDS011;12727;49.934;8.656;2023-02-15T02:02:36;84.10;;;28.85;;
24559;SDS011;12727;49.934;8.656;2023-02-15T02:05:03;82.85;;;29.63;;
24559;SDS011;12727;49.934;8.656;2023-02-15T02:07:32;72.97;;;27.95;;
24559;SDS011;12727;49.934;8.656;2023-02-15T02:10:02;75.38;;;27.70;;
24559;SDS011;12727;49.934;8.656;2023-02-15T02:12:29;85.15;;;31.33;;
24559;SDS011;12727;49.934;8.656;2023-02-15T02:14:55;79.70;;;28.70;;
24559;SDS011;12727;49.934;8.656;2023-02-15T02:25:41;80.97;;;31.05;;
24559;SDS011;12727;49.934;8.656;2023-02-15T02:28:29;83.45;;;31.02;;
24559;SDS011;12727;49.934;8.656;2023-02-15T02:31:19;82.70;;;31.00;;
24559;SDS011;12727;49.934;8.656;2023-02-15T02:36:37;73.65;;;28.98;;
24559;SDS011;12727;49.934;8.656;2023-02-15T02:39:30;69.43;;;28.02;;
24559;SDS011;12727;49.934;8.656;2023-02-15T02:42:12;74.75;;;28.15;;
24559;SDS011;12727;49.934;8.656;2023-02-15T02:44:43;87.50;;;29.33;;
24559;SDS011;12727;49.934;8.656;2023-02-15T02:50:22;397.70;;;50.35;;
24559;SDS011;12727;49.934;8.656;2023-02-15T02:52:52;87.20;;;29.52;;
24559;SDS011;12727;49.934;8.656;2023-02-15T02:55:42;78.00;;;27.80;;
24559;SDS011;12727;49.934;8.656;2023-02-15T03:00:54;77.85;;;27.08;;
24559;SDS011;12727;49.934;8.656;2023-02-15T03:03:32;77.07;;;27.83;;
24559;SDS011;12727;49.934;8.656;2023-02-15T03:06:07;74.68;;;28.35;;
24559;SDS011;12727;49.934;8.656;2023-02-15T03:08:37;81.90;;;29.92;;
24559;SDS011;12727;49.934;8.656;2023-02-15T03:11:06;78.75;;;28.45;;
24559;SDS011;12727;49.934;8.656;2023-02-15T03:13:32;86.70;;;29.45;;
24559;SDS011;12727;49.934;8.656;2023-02-15T03:15:59;113.47;;;32.65;;
24559;SDS011;12727;49.934;8.656;2023-02-15T03:18:46;95.00;;;30.85;;
24559;SDS011;12727;49.934;8.656;2023-02-15T03:21:28;88.63;;;30.35;;
24559;SDS011;12727;49.934;8.656;2023-02-15T03:23:57;79.75;;;26.70;;
24559;SDS011;12727;49.934;8.656;2023-02-15T03:26:40;87.20;;;30.83;;
24559;SDS011;12727;49.934;8.656;2023-02-15T03:29:10;90.95;;;31.05;;
24559;SDS011;12727;49.934;8.656;2023-02-15T03:31:38;84.22;;;30.73;;
24559;SDS011;12727;49.934;8.656;2023-02-15T03:34:06;79.93;;;29.13;;
24559;SDS011;12727;49.934;8.656;2023-02-15T03:41:57;81.00;;;29.65;;
24559;SDS011;12727;49.934;8.656;2023-02-15T03:44:33;248.57;;;40.35;;
24559;SDS011;12727;49.934;8.656;2023-02-15T03:47:08;700.38;;;69.43;;
24559;SDS011;12727;49.934;8.656;2023-02-15T03:49:42;216.52;;;39.83;;
24559;SDS011;12727;49.934;8.656;2023-02-15T03:52:12;95.70;;;32.15;;
24559;SDS011;12727;49.934;8.656;2023-02-15T03:54:40;93.40;;;32.08;;
24559;SDS011;12727;49.934;8.656;2023-02-15T03:57:07;79.63;;;29.52;;
24559;SDS011;12727;49.934;8.656;2023-02-15T03:59:57;82.45;;;28.67;;
24559;SDS011;12727;49.934;8.656;2023-02-15T04:05:29;71.05;;;27.73;;
24559;SDS011;12727;49.934;8.656;2023-02-15T04:07:54;83.68;;;30.35;;
24559;SDS011;12727;49.934;8.656;2023-02-15T04:10:20;81.00;;;30.55;;
24559;SDS011;12727;49.934;8.656;2023-02-15T04:13:04;90.38;;;31.55;;
24559;SDS011;12727;49.934;8.656;2023-02-15T04:15:29;88.30;;;33.47;;
24559;SDS011;12727;49.934;8.656;2023-02-15T04:18:14;82.25;;;30.50;;
24559;SDS011;12727;49.934;8.656;2023-02-15T04:20:43;77.28;;;29.60;;
24559;SDS011;12727;49.934;8.656;2023-02-15T04:23:27;71.65;;;27.92;;
24559;SDS011;12727;49.934;8.656;2023-02-15T04:26:12;72.95;;;28.63;;
24559;SDS011;12727;49.934;8.656;2023-02-15T04:28:37;75.20;;;27.50;;
24559;SDS011;12727;49.934;8.656;2023-02-15T04:31:03;77.53;;;27.80;;
24559;SDS011;12727;49.934;8.656;2023-02-15T04:33:28;71.05;;;26.95;;
24559;SDS011;12727;49.934;8.656;2023-02-15T04:35:54;72.88;;;27.35;;
24559;SDS011;12727;49.934;8.656;2023-02-15T04:38:21;74.75;;;27.13;;
24559;SDS011;12727;49.934;8.656;2023-02-15T04:40:50;77.13;;;27.80;;
24559;SDS011;12727;49.934;8.656;2023-02-15T04:43:17;76.68;;;28.60;;
24559;SDS011;12727;49.934;8.656;2023-02-15T04:45:47;81.38;;;27.25;;
24559;SDS011;12727;49.934;8.656;2023-02-15T04:48:15;71.53;;;28.00;;
24559;SDS011;12727;49.934;8.656;2023-02-15T04:50:41;71.03;;;26.58;;
24559;SDS011;12727;49.934;8.656;2023-02-15T04:53:07;78.65;;;27.42;;
24559;SDS011;12727;49.934;8.656;2023-02-15T04:55:32;75.45;;;27.02;;
24559;SDS011;12727;49.934;8.656;2023-02-15T04:57:58;68.60;;;26.85;;
24559;SDS011;12727;49.934;8.656;2023-02-15T05:00:23;70.88;;;26.33;;
24559;SDS011;12727;49.934;8.656;2023-02-15T05:02:49;71.07;;;25.98;;
24559;SDS011;12727;49.934;8.656;2023-02-15T05:05:14;69.43;;;25.20;;
24559;SDS011;12727;49.934;8.656;2023-02-15T05:07:40;70.20;;;26.48;;
24559;SDS011;12727;49.934;8.656;2023-02-15T05:10:06;65.72;;;25.10;;
24559;SDS011;12727;49.934;8.656;2023-02-15T05:12:32;65.68;;;25.63;;
24559;SDS011;12727;49.934;8.656;2023-02-15T05:14:57;68.70;;;25.52;;
24559;SDS011;12727;49.934;8.656;2023-02-15T05:17:23;62.78;;;25.17;;
24559;SDS011;12727;49.934;8.656;2023-02-15T05:19:48;80.30;;;27.42;;
24559;SDS011;12727;49.934;8.656;2023-02-15T05:22:14;65.80;;;24.23;;
24559;SDS011;12727;49.934;8.656;2023-02-15T05:24:39;59.25;;;24.85;;
24559;SDS011;12727;49.934;8.656;2023-02-15T05:27:23;58.85;;;23.92;;
24559;SDS011;12727;49.934;8.656;2023-02-15T05:30:27;60.03;;;23.05;;
24559;SDS011;12727;49.934;8.656;2023-02-15T05:32:53;58.45;;;23.35;;
24559;SDS011;12727;49.934;8.656;2023-02-15T05:35:19;55.13;;;23.10;;
24559;SDS011;12727;49.934;8.656;2023-02-15T05:37:44;53.90;;;23.05;;
24559;SDS011;12727;49.934;8.656;2023-02-15T05:40:10;54.20;;;23.15;;
24559;SDS011;12727;49.934;8.656;2023-02-15T05:42:36;53.25;;;21.85;;
24559;SDS011;12727;49.934;8.656;2023-02-15T05:45:01;55.42;;;23.05;;
24559;SDS011;12727;49.934;8.656;2023-02-15T05:47:28;59.67;;;21.45;;
24559;SDS011;12727;49.934;8.656;2023-02-15T05:49:54;50.25;;;21.65;;
24559;SDS011;12727;49.934;8.656;2023-02-15T05:52:19;57.45;;;23.83;;
24559;SDS011;12727;49.934;8.656;2023-02-15T05:54:45;59.20;;;23.13;;
24559;SDS011;12727;49.934;8.656;2023-02-15T05:57:10;56.40;;;21.77;;
24559;SDS011;12727;49.934;8.656;2023-02-15T05:59:36;63.03;;;22.98;;
24559;SDS011;12727;49.934;8.656;2023-02-15T06:02:01;54.72;;;21.67;;
24559;SDS011;12727;49.934;8.656;2023-02-15T06:04:27;55.35;;;22.33;;
24559;SDS011;12727;49.934;8.656;2023-02-15T06:06:52;63.08;;;22.67;;
24559;SDS011;12727;49.934;8.656;2023-02-15T06:09:18;55.50;;;23.02;;
24559;SDS011;12727;49.934;8.656;2023-02-15T06:11:44;60.78;;;23.70;;
24559;SDS011;12727;49.934;8.656;2023-02-15T06:14:10;60.05;;;23.95;;
24559;SDS011;12727;49.934;8.656;2023-02-15T06:16:36;63.17;;;23.98;;
24559;SDS011;12727;49.934;8.656;2023-02-15T06:19:02;56.08;;;20.98;;
24559;SDS011;12727;49.934;8.656;2023-02-15T06:21:28;48.20;;;19.55;;
24559;SDS011;12727;49.934;8.656;2023-02-15T06:23:55;55.33;;;20.75;;
24559;SDS011;12727;49.934;8.656;2023-02-15T06:26:20;64.00;;;23.08;;
24559;SDS011;12727;49.934;8.656;2023-02-15T06:28:46;61.78;;;22.65;;
24559;SDS011;12727;49.934;8.656;2023-02-15T06:31:11;71.00;;;22.67;;
24559;SDS011;12727;49.934;8.656;2023-02-15T06:33:37;62.40;;;22.67;;
24559;SDS011;12727;49.934;8.656;2023-02-15T06:36:03;51.00;;;21.25;;
24559;SDS011;12727;49.934;8.656;2023-02-15T06:38:29;54.83;;;20.98;;
24559;SDS011;12727;49.934;8.656;2023-02-15T06:40:55;61.80;;;22.05;;
24559;SDS011;12727;49.934;8.656;2023-02-15T06:43:21;56.92;;;21.75;;
24559;SDS011;12727;49.934;8.656;2023-02-15T06:45:46;50.85;;;20.88;;
24559;SDS011;12727;49.934;8.656;2023-02-15T06:48:12;57.25;;;22.58;;
24559;SDS011;12727;49.934;8.656;2023-02-15T06:50:38;49.67;;;20.67;;
24559;SDS011;12727;49.934;8.656;2023-02-15T06:53:04;55.22;;;20.58;;
24559;SDS011;12727;49.934;8.656;2023-02-15T06:55:30;52.85;;;22.23;;
24559;SDS011;12727;49.934;8.656;2023-02-15T06:57:55;54.42;;;20.88;;
24559;SDS011;12727;49.934;8.656;2023-02-15T07:00:21;46.65;;;17.02;;
24559;SDS011;12727;49.934;8.656;2023-02-15T07:02:48;50.35;;;20.95;;
24559;SDS011;12727;49.934;8.656;2023-02-15T07:05:20;54.63;;;21.77;;
24559;SDS011;12727;49.934;8.656;2023-02-15T07:07:46;60.03;;;22.45;;
24559;SDS011;12727;49.934;8.656;2023-02-15T07:10:11;54.17;;;22.70;;
24559;SDS011;12727;49.934;8.656;2023-02-15T07:12:37;51.20;;;21.35;;
24559;SDS011;12727;49.934;8.656;2023-02-15T07:15:16;49.00;;;20.38;;
24559;SDS011;12727;49.934;8.656;2023-02-15T07:17:45;57.72;;;21.33;;
24559;SDS011;12727;49.934;8.656;2023-02-15T07:20:21;59.28;;;23.20;;
24559;SDS011;12727;49.934;8.656;2023-02-15T07:22:48;59.10;;;22.95;;
24559;SDS011;12727;49.934;8.656;2023-02-15T07:25:14;53.00;;;22.35;;
24559;SDS011;12727;49.934;8.656;2023-02-15T07:27:41;53.00;;;21.40;;
24559;SDS011;12727;49.934;8.656;2023-02-15T07:30:07;46.97;;;20.98;;
24559;SDS011;12727;49.934;8.656;2023-02-15T07:32:35;50.15;;;20.95;;
24559;SDS011;12727;49.934;8.656;2023-02-15T07:35:00;53.03;;;22.25;;
24559;SDS011;12727;49.934;8.656;2023-02-15T07:37:26;49.10;;;20.20;;
24559;SDS011;12727;49.934;8.656;2023-02-15T07:39:52;49.35;;;19.58;;
24559;SDS011;12727;49.934;8.656;2023-02-15T07:42:18;46.58;;;18.35;;
24559;SDS011;12727;49.934;8.656;2023-02-15T07:44:44;48.55;;;20.73;;
24559;SDS011;12727;49.934;8.656;2023-02-15T07:47:10;49.13;;;19.10;;
24559;SDS011;12727;49.934;8.656;2023-02-15T07:49:37;48.90;;;19.17;;
24559;SDS011;12727;49.934;8.656;2023-02-15T07:52:03;48.92;;;20.05;;
24559;SDS011;12727;49.934;8.656;2023-02-15T07:54:28;47.40;;;19.25;;
24559;SDS011;12727;49.934;8.656;2023-02-15T07:56:54;38.30;;;16.48;;
24559;SDS011;12727;49.934;8.656;2023-02-15T07:59:20;42.92;;;17.13;;
24559;SDS011;12727;49.934;8.656;2023-02-15T08:01:46;47.25;;;19.08;;
24559;SDS011;12727;49.934;8.656;2023-02-15T08:04:11;40.97;;;17.52;;
24559;SDS011;12727;49.934;8.656;2023-02-15T08:06:37;47.00;;;19.02;;
24559;SDS011;12727;49.934;8.656;2023-02-15T08:09:04;53.42;;;20.30;;
24559;SDS011;12727;49.934;8.656;2023-02-15T08:11:31;40.95;;;18.33;;
24559;SDS011;12727;49.934;8.656;2023-02-15T08:14:02;44.88;;;18.45;;
24559;SDS011;12727;49.934;8.656;2023-02-15T08:16:30;43.30;;;18.90;;
24559;SDS011;12727;49.934;8.656;2023-02-15T08:18:58;49.97;;;19.80;;
24559;SDS011;12727;49.934;8.656;2023-02-15T08:21:26;48.30;;;19.45;;
24559;SDS011;12727;49.934;8.656;2023-02-15T08:23:53;48.85;;;20.52;;
24559;SDS011;12727;49.934;8.656;2023-02-15T08:26:20;51.42;;;20.73;;
24559;SDS011;12727;49.934;8.656;2023-02-15T08:28:46;48.63;;;18.88;;
24559;SDS011;12727;49.934;8.656;2023-02-15T08:31:13;42.30;;;18.60;;
24559;SDS011;12727;49.934;8.656;2023-02-15T08:33:40;37.97;;;16.70;;
24559;SDS011;12727;49.934;8.656;2023-02-15T08:36:12;39.65;;;16.70;;
24559;SDS011;12727;49.934;8.656;2023-02-15T08:38:39;37.80;;;15.85;;
24559;SDS011;12727;49.934;8.656;2023-02-15T08:41:24;42.13;;;18.85;;
24559;SDS011;12727;49.934;8.656;2023-02-15T08:43:52;36.13;;;16.05;;
24559;SDS011;12727;49.934;8.656;2023-02-15T08:46:19;37.38;;;16.88;;
24559;SDS011;12727;49.934;8.656;2023-02-15T08:48:46;41.55;;;18.75;;
24559;SDS011;12727;49.934;8.656;2023-02-15T08:51:16;50.42;;;22.35;;
24559;SDS011;12727;49.934;8.656;2023-02-15T08:53:47;46.30;;;20.08;;
24559;SDS011;12727;49.934;8.656;2023-02-15T08:56:15;55.38;;;23.20;;
24559;SDS011;12727;49.934;8.656;2023-02-15T08:58:42;50.97;;;20.42;;
24559;SDS011;12727;49.934;8.656;2023-02-15T09:01:08;56.35;;;20.95;;
24559;SDS011;12727;49.934;8.656;2023-02-15T09:03:35;56.85;;;23.63;;
24559;SDS011;12727;49.934;8.656;2023-02-15T09:06:01;55.85;;;21.75;;
24559;SDS011;12727;49.934;8.656;2023-02-15T09:08:27;55.75;;;20.63;;
24559;SDS011;12727;49.934;8.656;2023-02-15T09:10:53;60.97;;;23.35;;
24559;SDS011;12727;49.934;8.656;2023-02-15T09:13:20;60.00;;;22.13;;
24559;SDS011;12727;49.934;8.656;2023-02-15T09:15:45;63.40;;;25.08;;
24559;SDS011;12727;49.934;8.656;2023-02-15T09:18:11;66.03;;;24.42;;
24559;SDS011;12727;49.934;8.656;2023-02-15T09:20:41;61.42;;;23.30;;
24559;SDS011;12727;49.934;8.656;2023-02-15T09:23:08;63.35;;;23.70;;
24559;SDS011;12727;49.934;8.656;2023-02-15T09:25:33;49.50;;;20.58;;
24559;SDS011;12727;49.934;8.656;2023-02-15T09:27:59;58.10;;;23.33;;
24559;SDS011;12727;49.934;8.656;2023-02-15T09:30:25;57.65;;;23.98;;
24559;SDS011;12727;49.934;8.656;2023-02-15T09:32:50;53.35;;;22.15;;
24559;SDS011;12727;49.934;8.656;2023-02-15T09:35:16;61.67;;;23.73;;
24559;SDS011;12727;49.934;8.656;2023-02-15T09:37:41;50.67;;;22.20;;
24559;SDS011;12727;49.934;8.656;2023-02-15T09:40:07;56.50;;;23.75;;
24559;SDS011;12727;49.934;8.656;2023-02-15T09:45:01;57.95;;;23.58;;
24559;SDS011;12727;49.934;8.656;2023-02-15T09:50:16;53.05;;;22.52;;
24559;SDS011;12727;49.934;8.656;2023-02-15T10:25:46;58.72;;;22.05;;
24559;SDS011;12727;49.934;8.656;2023-02-15T10:30:50;63.30;;;24.42;;
24559;SDS011;12727;49.934;8.656;2023-02-15T10:33:37;54.63;;;22.52;;
24559;SDS011;12727;49.934;8.656;2023-02-15T10:47:31;56.90;;;24.42;;
24559;SDS011;12727;49.934;8.656;2023-02-15T10:50:16;59.03;;;24.55;;
24559;SDS011;12727;49.934;8.656;2023-02-15T11:06:41;67.68;;;26.73;;
24559;SDS011;12727;49.934;8.656;2023-02-15T11:09:13;56.25;;;25.23;;
24559;SDS011;12727;49.934;8.656;2023-02-15T11:11:43;62.20;;;26.73;;
24559;SDS011;12727;49.934;8.656;2023-02-15T11:14:17;62.10;;;27.60;;
24559;SDS011;12727;49.934;8.656;2023-02-15T11:17:02;65.65;;;26.92;;
24559;SDS011;12727;49.934;8.656;2023-02-15T11:19:46;68.45;;;28.58;;
24559;SDS011;12727;49.934;8.656;2023-02-15T11:22:16;61.70;;;25.63;;
24559;SDS011;12727;49.934;8.656;2023-02-15T11:24:43;71.43;;;28.35;;
24559;SDS011;12727;49.934;8.656;2023-02-15T11:27:20;67.25;;;27.70;;
24559;SDS011;12727;49.934;8.656;2023-02-15T11:32:31;73.97;;;31.13;;
24559;SDS011;12727;49.934;8.656;2023-02-15T11:37:33;61.63;;;26.08;;
24559;SDS011;12727;49.934;8.656;2023-02-15T11:43:04;69.47;;;28.15;;
24559;SDS011;12727;49.934;8.656;2023-02-15T11:45:36;67.28;;;29.25;;
24559;SDS011;12727;49.934;8.656;2023-02-15T11:48:11;77.28;;;32.00;;
24559;SDS011;12727;49.934;8.656;2023-02-15T11:50:39;69.43;;;29.15;;
24559;SDS011;12727;49.934;8.656;2023-02-15T11:53:07;66.47;;;28.08;;
24559;SDS011;12727;49.934;8.656;2023-02-15T11:55:52;59.97;;;26.52;;
24559;SDS011;12727;49.934;8.656;2023-02-15T12:07:34;62.00;;;27.05;;
24559;SDS011;12727;49.934;8.656;2023-02-15T12:09:50;53.15;;;24.27;;
24559;SDS011;12727;49.934;8.656;2023-02-15T12:12:26;56.85;;;26.00;;
24559;SDS011;12727;49.934;8.656;2023-02-15T12:14:57;61.42;;;27.17;;
24559;SDS011;12727;49.934;8.656;2023-02-15T12:17:26;59.05;;;26.92;;
24559;SDS011;12727;49.934;8.656;2023-02-15T12:19:57;57.20;;;26.05;;
24559;SDS011;12727;49.934;8.656;2023-02-15T12:22:27;55.67;;;25.40;;
24559;SDS011;12727;49.934;8.656;2023-02-15T12:24:56;61.60;;;28.10;;
24559;SDS011;12727;49.934;8.656;2023-02-15T12:27:32;55.58;;;26.83;;
24559;SDS011;12727;49.934;8.656;2023-02-15T12:30:00;63.53;;;28.90;;
24559;SDS011;12727;49.934;8.656;2023-02-15T12:32:51;56.92;;;26.33;;
24559;SDS011;12727;49.934;8.656;2023-02-15T12:37:54;61.60;;;29.73;;
24559;SDS011;12727;49.934;8.656;2023-02-15T12:40:27;66.28;;;30.17;;
24559;SDS011;12727;49.934;8.656;2023-02-15T12:42:58;60.55;;;29.95;;
24559;SDS011;12727;49.934;8.656;2023-02-15T12:45:28;58.95;;;30.13;;
24559;SDS011;12727;49.934;8.656;2023-02-15T12:48:09;63.55;;;29.77;;
24559;SDS011;12727;49.934;8.656;2023-02-15T12:50:41;65.05;;;30.85;;
24559;SDS011;12727;49.934;8.656;2023-02-15T12:55:58;57.05;;;28.00;;
24559;SDS011;12727;49.934;8.656;2023-02-15T12:58:28;56.28;;;27.05;;
24559;SDS011;12727;49.934;8.656;2023-02-15T13:01:03;57.85;;;28.02;;
24559;SDS011;12727;49.934;8.656;2023-02-15T13:03:38;52.45;;;24.42;;
24559;SDS011;12727;49.934;8.656;2023-02-15T13:06:31;51.22;;;27.00;;
24559;SDS011;12727;49.934;8.656;2023-02-15T13:09:14;57.67;;;27.65;;
24559;SDS011;12727;49.934;8.656;2023-02-15T13:11:43;53.80;;;24.97;;
24559;SDS011;12727;49.934;8.656;2023-02-15T13:14:17;54.95;;;26.67;;
24559;SDS011;12727;49.934;8.656;2023-02-15T13:16:45;48.80;;;23.95;;
24559;SDS011;12727;49.934;8.656;2023-02-15T13:19:15;51.17;;;25.35;;
24559;SDS011;12727;49.934;8.656;2023-02-15T13:21:44;48.55;;;24.65;;
24559;SDS011;12727;49.934;8.656;2023-02-15T13:26:57;44.17;;;22.33;;
24559;SDS011;12727;49.934;8.656;2023-02-15T13:29:29;40.78;;;21.45;;
24559;SDS011;12727;49.934;8.656;2023-02-15T13:31:59;44.42;;;22.33;;
24559;SDS011;12727;49.934;8.656;2023-02-15T13:34:32;50.35;;;24.35;;
24559;SDS011;12727;49.934;8.656;2023-02-15T13:37:04;50.72;;;25.35;;
24559;SDS011;12727;49.934;8.656;2023-02-15T13:39:46;53.55;;;25.40;;
24559;SDS011;12727;49.934;8.656;2023-02-15T13:47:32;52.22;;;25.27;;
24559;SDS011;12727;49.934;8.656;2023-02-15T13:50:31;50.58;;;25.50;;
24559;SDS011;12727;49.934;8.656;2023-02-15T13:55:56;56.70;;;28.30;;
24559;SDS011;12727;49.934;8.656;2023-02-15T14:07:10;60.75;;;27.05;;
24559;SDS011;12727;49.934;8.656;2023-02-15T14:10:11;56.05;;;26.48;;
24559;SDS011;12727;49.934;8.656;2023-02-15T14:15:49;53.72;;;28.25;;
24559;SDS011;12727;49.934;8.656;2023-02-15T14:18:43;51.38;;;25.38;;
24559;SDS011;12727;49.934;8.656;2023-02-15T14:24:26;56.45;;;27.23;;
24559;SDS011;12727;49.934;8.656;2023-02-15T14:30:15;51.22;;;24.92;;
24559;SDS011;12727;49.934;8.656;2023-02-15T14:32:43;53.55;;;27.10;;
24559;SDS011;12727;49.934;8.656;2023-02-15T14:35:17;60.95;;;28.80;;
24559;SDS011;12727;49.934;8.656;2023-02-15T14:40:48;44.10;;;23.85;;
24559;SDS011;12727;49.934;8.656;2023-02-15T14:46:21;60.17;;;29.27;;
24559;SDS011;12727;49.934;8.656;2023-02-15T14:56:46;55.03;;;29.38;;
24559;SDS011;12727;49.934;8.656;2023-02-15T15:07:03;60.97;;;29.52;;
24559;SDS011;12727;49.934;8.656;2023-02-15T15:09:40;63.92;;;32.78;;
24559;SDS011;12727;49.934;8.656;2023-02-15T15:14:49;57.15;;;29.40;;
24559;SDS011;12727;49.934;8.656;2023-02-15T15:19:59;62.95;;;31.05;;
24559;SDS011;12727;49.934;8.656;2023-02-15T15:22:32;61.83;;;31.63;;
24559;SDS011;12727;49.934;8.656;2023-02-15T15:25:02;62.63;;;30.63;;
24559;SDS011;12727;49.934;8.656;2023-02-15T15:49:28;61.33;;;32.00;;
24559;SDS011;12727;49.934;8.656;2023-02-15T15:51:56;61.75;;;30.52;;
24559;SDS011;12727;49.934;8.656;2023-02-15T15:54:33;52.38;;;26.38;;
24559;SDS011;12727;49.934;8.656;2023-02-15T15:57:04;61.95;;;29.83;;
24559;SDS011;12727;49.934;8.656;2023-02-15T15:59:36;62.07;;;31.87;;
24559;SDS011;12727;49.934;8.656;2023-02-15T16:02:10;75.93;;;35.88;;
24559;SDS011;12727;49.934;8.656;2023-02-15T16:04:40;61.17;;;31.17;;
24559;SDS011;12727;49.934;8.656;2023-02-15T16:10:00;60.20;;;31.20;;
24559;SDS011;12727;49.934;8.656;2023-02-15T16:12:33;62.08;;;31.35;;
24559;SDS011;12727;49.934;8.656;2023-02-15T16:15:04;65.25;;;32.92;;
24559;SDS011;12727;49.934;8.656;2023-02-15T16:17:40;61.92;;;30.23;;
24559;SDS011;12727;49.934;8.656;2023-02-15T16:20:15;61.58;;;29.33;;
24559;SDS011;12727;49.934;8.656;2023-02-15T16:22:44;59.28;;;29.67;;
24559;SDS011;12727;49.934;8.656;2023-02-15T16:28:06;57.85;;;28.38;;
24559;SDS011;12727;49.934;8.656;2023-02-15T16:30:34;62.33;;;29.10;;
24559;SDS011;12727;49.934;8.656;2023-02-15T16:36:01;57.95;;;29.58;;
24559;SDS011;12727;49.934;8.656;2023-02-15T16:41:12;61.00;;;30.67;;
24559;SDS011;12727;49.934;8.656;2023-02-15T16:43:41;61.22;;;30.65;;
24559;SDS011;12727;49.934;8.656;2023-02-15T16:46:31;61.67;;;29.85;;
24559;SDS011;12727;49.934;8.656;2023-02-15T16:48:58;59.38;;;29.75;;
24559;SDS011;12727;49.934;8.656;2023-02-15T16:51:28;56.50;;;30.98;;
24559;SDS011;12727;49.934;8.656;2023-02-15T16:53:56;59.00;;;29.33;;
24559;SDS011;12727;49.934;8.656;2023-02-15T16:56:26;60.58;;;31.30;;
24559;SDS011;12727;49.934;8.656;2023-02-15T16:58:55;61.65;;;31.25;;
24559;SDS011;12727;49.934;8.656;2023-02-15T17:01:23;63.83;;;30.20;;
24559;SDS011;12727;49.934;8.656;2023-02-15T17:04:10;62.53;;;30.98;;
24559;SDS011;12727;49.934;8.656;2023-02-15T17:06:59;65.55;;;31.92;;
24559;SDS011;12727;49.934;8.656;2023-02-15T17:09:28;66.93;;;33.17;;
24559;SDS011;12727;49.934;8.656;2023-02-15T17:11:55;69.22;;;32.92;;
24559;SDS011;12727;49.934;8.656;2023-02-15T17:14:31;75.63;;;34.92;;
24559;SDS011;12727;49.934;8.656;2023-02-15T17:17:07;74.63;;;37.13;;
24559;SDS011;12727;49.934;8.656;2023-02-15T17:19:47;74.75;;;35.67;;
24559;SDS011;12727;49.934;8.656;2023-02-15T17:22:24;70.50;;;34.22;;
24559;SDS011;12727;49.934;8.656;2023-02-15T17:24:59;70.30;;;33.92;;
24559;SDS011;12727;49.934;8.656;2023-02-15T17:27:28;65.85;;;31.90;;
24559;SDS011;12727;49.934;8.656;2023-02-15T17:30:00;71.55;;;32.13;;
24559;SDS011;12727;49.934;8.656;2023-02-15T17:32:37;58.88;;;29.63;;
24559;SDS011;12727;49.934;8.656;2023-02-15T17:35:14;59.85;;;32.28;;
24559;SDS011;12727;49.934;8.656;2023-02-15T17:37:46;68.90;;;33.85;;
24559;SDS011;12727;49.934;8.656;2023-02-15T17:40:46;72.18;;;34.22;;
24559;SDS011;12727;49.934;8.656;2023-02-15T17:43:05;72.47;;;34.53;;
24559;SDS011;12727;49.934;8.656;2023-02-15T17:45:33;77.50;;;36.72;;
24559;SDS011;12727;49.934;8.656;2023-02-15T17:48:02;74.72;;;34.80;;
24559;SDS011;12727;49.934;8.656;2023-02-15T17:50:29;68.85;;;34.00;;
24559;SDS011;12727;49.934;8.656;2023-02-15T17:52:56;67.72;;;33.75;;
24559;SDS011;12727;49.934;8.656;2023-02-15T17:55:23;74.38;;;36.05;;
24559;SDS011;12727;49.934;8.656;2023-02-15T17:58:11;72.78;;;33.90;;
24559;SDS011;12727;49.934;8.656;2023-02-15T18:00:48;77.65;;;36.38;;
24559;SDS011;12727;49.934;8.656;2023-02-15T18:03:44;75.22;;;34.47;;
24559;SDS011;12727;49.934;8.656;2023-02-15T18:06:31;75.80;;;36.40;;
24559;SDS011;12727;49.934;8.656;2023-02-15T18:09:17;68.55;;;34.30;;